Time;durP1;ratioP1;P1;durP2;ratioP2;P2;SDS_P1;SDS_P2;PMS_P1;PMS_P2;Temp;Humidity;BMP_temperature;BMP_pressure;BME280_temperature;BME280_humidity;BME280_pressure;Samples;Min_cycle;Max_cycle;Signal;HPM_P1;HPM_P2
2024/01/25 00:01:14;;;;;;;22.33;3.70;;;;;;;14.13;48.96;98626.59;5088137;28;20320;-71
2024/01/25 00:03:40;;;;;;;19.43;3.70;;;;;;;14.12;48.83;98624.94;5093359;28;20276;-70
2024/01/25 00:06:06;;;;;;;20.30;3.70;;;;;;;14.13;48.88;98622.16;5093144;28;20194;-70
2024/01/25 00:08:31;;;;;;;17.23;3.10;;;;;;;14.12;49.15;98606.47;5088377;28;20231;-68
2024/01/25 00:10:57;;;;;;;18.20;4.00;;;;;;;14.15;49.13;98614.09;5096090;28;20561;-69
2024/01/25 00:13:22;;;;;;;23.40;5.00;;;;;;;14.13;49.22;98602.88;5093181;28;20228;-70
2024/01/25 00:15:48;;;;;;;23.77;4.23;;;;;;;14.12;49.38;98603.84;5069445;28;20524;-69
2024/01/25 00:18:13;;;;;;;17.80;3.90;;;;;;;14.13;49.53;98597.59;5087632;28;20710;-70
2024/01/25 00:20:38;;;;;;;23.53;3.50;;;;;;;14.11;49.49;98602.19;5090682;28;20643;-69
2024/01/25 00:23:04;;;;;;;22.20;4.50;;;;;;;14.10;49.79;98595.25;5100171;28;20221;-71
2024/01/25 00:25:29;;;;;;;24.10;4.70;;;;;;;14.08;49.93;98598.03;5089737;28;20197;-70
2024/01/25 00:27:55;;;;;;;30.97;4.40;;;;;;;14.07;50.17;98591.09;5087723;28;20322;-69
2024/01/25 00:30:20;;;;;;;17.10;3.20;;;;;;;14.07;50.18;98598.16;5100773;28;20207;-70
2024/01/25 00:32:46;;;;;;;14.20;3.63;;;;;;;14.11;49.87;98599.56;5066776;28;20674;-70
2024/01/25 00:35:13;;;;;;;22.40;4.00;;;;;;;14.04;50.36;98601.06;5091921;28;20197;-70
2024/01/25 00:37:42;;;;;;;14.20;3.00;;;;;;;14.07;50.26;98603.44;5088797;28;20213;-70
2024/01/25 00:40:08;;;;;;;27.50;4.03;;;;;;;14.10;50.28;98603.16;5092057;28;20434;-72
2024/01/25 00:42:42;;;;;;;28.97;3.23;;;;;;;14.08;50.41;98595.38;5099880;28;20431;-71
2024/01/25 00:45:08;;;;;;;17.63;4.10;;;;;;;14.08;50.48;98591.94;5087465;28;20439;-70
2024/01/25 00:47:33;;;;;;;26.23;4.17;;;;;;;14.07;50.58;98596.34;5095474;28;20534;-70
2024/01/25 00:49:59;;;;;;;24.83;3.83;;;;;;;14.08;50.58;98595.38;5098276;28;20902;-70
2024/01/25 00:52:25;;;;;;;22.13;4.63;;;;;;;14.11;50.46;98589.84;5072789;28;20199;-71
2024/01/25 00:54:51;;;;;;;24.70;4.50;;;;;;;14.09;50.54;98598.88;5072123;28;20609;-70
2024/01/25 00:57:16;;;;;;;30.03;3.93;;;;;;;14.11;50.59;98597.75;5077542;28;20198;-70
2024/01/25 00:59:42;;;;;;;17.97;3.90;;;;;;;14.10;50.44;98597.91;5089537;28;20232;-70
2024/01/25 01:02:11;;;;;;;20.77;4.17;;;;;;;14.16;50.56;98605.22;5081832;28;20282;-69
2024/01/25 01:04:37;;;;;;;23.90;4.33;;;;;;;14.13;50.58;98600.22;5096191;28;20223;-69
2024/01/25 01:07:03;;;;;;;19.57;3.90;;;;;;;14.09;50.64;98598.88;5099677;28;20459;-71
2024/01/25 01:09:29;;;;;;;19.77;3.77;;;;;;;14.10;50.66;98600.53;5089728;28;20428;-69
2024/01/25 01:11:54;;;;;;;17.13;3.27;;;;;;;14.08;50.71;98607.75;5092000;28;20432;-70
2024/01/25 01:14:20;;;;;;;22.00;4.27;;;;;;;14.07;50.79;98603.44;5071954;28;20205;-70
2024/01/25 01:16:45;;;;;;;16.03;3.90;;;;;;;14.08;50.86;98603.28;5086286;28;20300;-70
2024/01/25 01:19:10;;;;;;;28.07;4.57;;;;;;;14.07;50.85;98595.53;5094220;28;20189;-71
2024/01/25 01:21:36;;;;;;;19.67;3.20;;;;;;;14.04;50.90;98595.81;5093822;28;20185;-69
2024/01/25 01:24:02;;;;;;;17.30;3.70;;;;;;;14.04;51.11;98590.53;5082875;28;20239;-67
2024/01/25 01:26:27;;;;;;;19.50;3.87;;;;;;;13.99;51.11;98593.59;5072590;28;20821;-70
2024/01/25 01:28:53;;;;;;;16.27;3.20;;;;;;;14.01;51.17;98591.66;5084477;28;20425;-69
2024/01/25 01:31:18;;;;;;;17.33;4.17;;;;;;;13.99;51.29;98596.22;5101493;28;20240;-69
2024/01/25 01:33:44;;;;;;;18.90;3.10;;;;;;;14.00;51.27;98584.72;5090664;28;20213;-69
2024/01/25 01:36:09;;;;;;;16.73;2.97;;;;;;;14.02;51.25;98588.06;5073343;28;20221;-70
2024/01/25 01:38:35;;;;;;;25.13;3.70;;;;;;;14.04;51.21;98578.19;5093029;28;20273;-69
2024/01/25 01:41:00;;;;;;;15.23;3.10;;;;;;;14.08;51.38;98587.47;5093035;28;20216;-69
2024/01/25 01:43:26;;;;;;;21.83;3.70;;;;;;;13.99;51.25;98588.31;5092952;28;20789;-70
2024/01/25 01:45:51;;;;;;;22.43;3.13;;;;;;;13.92;51.27;98581.97;5089902;28;20196;-69
2024/01/25 01:48:17;;;;;;;23.23;4.73;;;;;;;13.87;51.10;98585.00;5089476;28;20201;-70
2024/01/25 01:50:44;;;;;;;21.80;3.57;;;;;;;13.92;51.11;98588.06;5094501;28;20197;-68
2024/01/25 01:53:10;;;;;;;17.43;3.67;;;;;;;13.94;50.97;98588.75;5075404;28;20229;-70
2024/01/25 01:55:35;;;;;;;20.30;3.60;;;;;;;14.00;50.82;98587.34;5086966;28;20431;-69
2024/01/25 01:58:02;;;;;;;19.10;3.50;;;;;;;14.02;50.97;98584.56;5072114;28;20444;-69
2024/01/25 02:00:28;;;;;;;19.67;3.70;;;;;;;13.97;50.93;98585.84;5095579;28;20606;-71
2024/01/25 02:02:53;;;;;;;17.03;2.93;;;;;;;14.02;51.02;98588.06;5079854;28;20420;-69
2024/01/25 02:05:19;;;;;;;25.87;3.63;;;;;;;14.00;50.68;98584.72;5095272;28;20432;-69
2024/01/25 02:07:44;;;;;;;24.03;3.57;;;;;;;13.98;50.50;98592.78;5095876;28;20289;-69
2024/01/25 02:10:11;;;;;;;18.60;3.80;;;;;;;13.97;50.81;98585.84;5074708;28;20188;-70
2024/01/25 02:12:37;;;;;;;18.17;4.30;;;;;;;13.94;50.76;98583.47;5097783;28;20184;-69
2024/01/25 02:15:03;;;;;;;15.43;3.30;;;;;;;13.99;50.63;98590.97;5092439;28;20425;-68
2024/01/25 02:17:29;;;;;;;20.47;3.50;;;;;;;13.94;50.53;98594.03;5103241;28;20451;-70
2024/01/25 02:19:54;;;;;;;18.77;4.10;;;;;;;13.95;50.59;98593.06;5081944;28;20261;-69
2024/01/25 02:22:20;;;;;;;16.17;3.10;;;;;;;13.86;50.61;98571.97;5093119;28;20216;-69
2024/01/25 02:24:45;;;;;;;19.17;3.00;;;;;;;13.88;50.57;98576.13;5075675;28;20658;-69
2024/01/25 02:27:11;;;;;;;14.40;4.00;;;;;;;13.90;50.73;98562.81;5079690;28;20205;-69
2024/01/25 02:29:36;;;;;;;18.93;7.00;;;;;;;13.92;50.78;98556.44;5095790;28;20189;-69
2024/01/25 02:32:02;;;;;;;25.60;4.17;;;;;;;13.88;50.49;98570.84;5089762;28;20189;-69
2024/01/25 02:34:27;;;;;;;21.50;3.60;;;;;;;13.81;50.56;98569.75;5068547;28;20908;-70
2024/01/25 02:36:53;;;;;;;23.40;4.10;;;;;;;13.85;50.37;98573.78;5094585;28;20241;-70
2024/01/25 02:39:18;;;;;;;15.33;3.43;;;;;;;13.81;50.35;98575.84;5105708;28;20201;-70
2024/01/25 02:41:44;;;;;;;17.90;4.67;;;;;;;13.81;50.29;98577.66;5078667;28;20848;-69
2024/01/25 02:44:11;;;;;;;21.03;3.90;;;;;;;13.80;50.36;98581.25;5093285;28;20182;-71
2024/01/25 02:46:36;;;;;;;13.70;3.47;;;;;;;13.82;50.14;98592.50;5099553;28;20205;-70
2024/01/25 02:49:02;;;;;;;15.10;3.10;;;;;;;13.81;50.33;98582.94;5099487;28;20427;-71
2024/01/25 02:51:27;;;;;;;20.23;3.63;;;;;;;13.81;50.20;98585.56;5074503;28;20190;-71
2024/01/25 02:53:53;;;;;;;19.03;3.50;;;;;;;13.83;50.28;98571.28;5084621;28;20239;-71
2024/01/25 02:56:18;;;;;;;21.83;3.70;;;;;;;13.87;50.39;98571.81;5087336;28;20273;-72
2024/01/25 02:58:43;;;;;;;23.37;4.03;;;;;;;13.88;50.36;98576.13;5095181;28;20268;-70
2024/01/25 03:01:09;;;;;;;18.00;3.90;;;;;;;13.88;50.21;98581.38;5088441;28;20221;-70
2024/01/25 03:03:34;;;;;;;13.60;3.40;;;;;;;13.91;50.35;98575.03;5088706;28;20797;-69
2024/01/25 03:06:00;;;;;;;18.37;4.00;;;;;;;13.92;50.59;98592.50;5092330;28;20277;-70
2024/01/25 03:08:25;;;;;;;24.33;4.70;;;;;;;13.94;50.34;98575.56;5092692;28;20209;-69
2024/01/25 03:10:51;;;;;;;16.23;3.20;;;;;;;13.91;50.21;98575.84;5088228;28;20189;-69
2024/01/25 03:13:16;;;;;;;19.00;3.33;;;;;;;13.90;50.04;98579.44;5091890;28;20947;-69
2024/01/25 03:15:43;;;;;;;25.43;4.63;;;;;;;13.89;50.21;98585.69;5095776;28;20610;-69
2024/01/25 03:18:09;;;;;;;15.40;3.23;;;;;;;13.90;50.26;98579.44;5084157;28;20565;-71
2024/01/25 03:20:34;;;;;;;16.30;3.20;;;;;;;13.90;50.29;98584.72;5092495;28;20473;-71
2024/01/25 03:23:00;;;;;;;10.80;2.93;;;;;;;13.93;50.38;98592.34;5089306;28;20856;-70
2024/01/25 03:25:25;;;;;;;16.20;3.70;;;;;;;13.93;50.24;98594.13;5079947;28;20884;-72
2024/01/25 03:27:51;;;;;;;15.43;4.10;;;;;;;13.92;50.23;98592.50;5086431;28;20237;-69
2024/01/25 03:30:16;;;;;;;21.87;4.97;;;;;;;13.91;50.25;98596.13;5085423;28;20172;-69
2024/01/25 03:32:42;;;;;;;19.70;4.17;;;;;;;13.92;50.24;98592.50;5088076;28;20717;-70
2024/01/25 03:35:08;;;;;;;18.83;3.90;;;;;;;13.92;50.05;98603.03;5095830;28;21912;-69
2024/01/25 03:37:33;;;;;;;14.17;3.33;;;;;;;13.90;50.13;98600.53;5080405;28;20228;-70
2024/01/25 03:39:58;;;;;;;14.20;3.50;;;;;;;13.89;50.13;98612.03;5088878;28;20217;-69
2024/01/25 03:42:24;;;;;;;17.90;4.03;;;;;;;13.89;50.35;98614.69;5083280;28;20197;-71
2024/01/25 03:44:49;;;;;;;20.33;3.90;;;;;;;13.92;50.37;98609.13;5087867;28;20182;-68
2024/01/25 03:47:15;;;;;;;17.07;3.20;;;;;;;13.92;50.22;98614.41;5092821;28;20292;-70
2024/01/25 03:49:40;;;;;;;16.17;3.27;;;;;;;13.90;50.53;98626.06;5083029;28;20296;-69
2024/01/25 03:52:06;;;;;;;15.57;3.40;;;;;;;13.87;50.64;98632.44;5077758;28;20189;-70
2024/01/25 03:54:31;;;;;;;17.17;2.87;;;;;;;13.91;50.46;98633.00;5095423;28;20221;-70
2024/01/25 03:56:57;;;;;;;16.93;3.17;;;;;;;13.83;50.93;98631.06;5088544;28;20818;-69
2024/01/25 03:59:22;;;;;;;17.10;3.20;;;;;;;13.83;50.84;98645.06;5087416;28;20327;-70
2024/01/25 04:01:48;;;;;;;19.43;3.70;;;;;;;13.85;50.93;98652.84;5096074;28;20209;-69
2024/01/25 04:04:15;;;;;;;15.67;3.80;;;;;;;13.82;50.76;98647.84;5097008;28;20265;-69
2024/01/25 04:06:45;;;;;;;16.27;3.80;;;;;;;13.83;51.01;98652.97;5094796;28;20214;-70
2024/01/25 04:09:11;;;;;;;18.40;3.57;;;;;;;13.83;50.93;98662.69;5099279;28;20473;-69
2024/01/25 04:11:37;;;;;;;11.80;2.87;;;;;;;13.85;51.09;98663.38;5087773;28;20827;-69
2024/01/25 04:14:02;;;;;;;15.47;2.80;;;;;;;13.87;51.05;98668.50;5085926;28;20861;-70
2024/01/25 04:16:28;;;;;;;14.80;3.40;;;;;;;13.89;51.13;98656.03;5052295;28;20430;-70
2024/01/25 04:18:53;;;;;;;17.80;3.17;;;;;;;13.86;51.15;98651.84;5078270;28;20185;-69
2024/01/25 04:21:19;;;;;;;22.17;4.00;;;;;;;13.87;51.17;98664.06;5078101;28;20649;-68
2024/01/25 04:23:44;;;;;;;13.70;3.20;;;;;;;13.83;50.97;98666.13;5087719;28;20173;-71
2024/01/25 04:26:09;;;;;;;16.63;3.70;;;;;;;13.79;50.94;98661.28;5091119;28;20728;-69
2024/01/25 04:28:35;;;;;;;14.03;3.30;;;;;;;13.79;50.91;98659.50;5099475;28;20208;-69
2024/01/25 04:31:02;;;;;;;19.27;3.43;;;;;;;13.79;51.08;98661.28;5094524;28;20200;-69
2024/01/25 04:33:28;;;;;;;17.60;3.90;;;;;;;13.76;51.15;98656.28;5075682;28;20209;-68
2024/01/25 04:35:53;;;;;;;20.20;4.33;;;;;;;13.74;51.04;98659.06;5095529;28;20430;-68
2024/01/25 04:38:19;;;;;;;19.13;3.83;;;;;;;13.76;51.31;98664.19;5091412;28;20225;-69
2024/01/25 04:40:44;;;;;;;25.70;4.70;;;;;;;13.71;51.04;98663.78;5085705;28;20268;-68
2024/01/25 04:43:11;;;;;;;20.73;3.27;;;;;;;13.66;51.39;98670.28;5091340;28;20268;-69
2024/01/25 04:45:36;;;;;;;22.50;3.90;;;;;;;13.63;51.36;98660.00;5090470;28;20228;-70
2024/01/25 04:48:02;;;;;;;18.70;3.97;;;;;;;13.70;51.55;98672.66;5077536;28;20476;-70
2024/01/25 04:50:28;;;;;;;30.50;4.30;;;;;;;13.73;51.31;98672.38;5091524;28;20657;-69
2024/01/25 04:52:53;;;;;;;13.17;2.90;;;;;;;13.70;51.49;98668.19;5087660;28;20212;-69
2024/01/25 04:55:19;;;;;;;21.47;3.97;;;;;;;13.65;51.27;98657.25;5079535;28;20212;-69
2024/01/25 04:57:45;;;;;;;20.13;3.37;;;;;;;13.63;51.21;98665.28;5090689;28;20550;-68
2024/01/25 05:00:11;;;;;;;15.83;3.63;;;;;;;13.64;50.97;98668.75;5090521;28;20465;-69
2024/01/25 05:02:36;;;;;;;20.00;4.03;;;;;;;13.65;51.22;98675.69;5089755;28;20189;-70
2024/01/25 05:05:02;;;;;;;15.07;3.57;;;;;;;13.69;51.04;98684.16;5090128;28;20920;-69
2024/01/25 05:07:27;;;;;;;18.53;3.60;;;;;;;13.67;50.78;98685.13;5093165;28;20214;-70
2024/01/25 05:09:53;;;;;;;17.50;3.77;;;;;;;13.63;50.64;98683.72;5091004;28;20589;-70
2024/01/25 05:12:19;;;;;;;20.20;4.23;;;;;;;13.55;50.29;98690.63;5097241;28;20214;-69
2024/01/25 05:14:44;;;;;;;19.93;3.93;;;;;;;13.49;50.24;98690.22;5095012;28;20217;-68
2024/01/25 05:17:09;;;;;;;13.27;3.37;;;;;;;13.42;49.96;98690.88;5088066;28;20221;-70
2024/01/25 05:19:35;;;;;;;28.40;4.63;;;;;;;13.40;49.98;98679.66;5083416;28;20178;-71
2024/01/25 05:22:06;;;;;;;12.47;3.83;;;;;;;13.31;49.89;98684.72;5093106;28;20213;-69
2024/01/25 05:24:31;;;;;;;21.43;3.83;;;;;;;13.29;50.25;98689.28;5090857;28;20226;-68
2024/01/25 05:26:57;;;;;;;18.17;3.70;;;;;;;13.28;50.02;98690.25;5064778;28;20452;-69
2024/01/25 05:29:22;;;;;;;22.33;3.50;;;;;;;13.20;50.04;98696.19;5081040;28;20254;-69
2024/01/25 05:31:49;;;;;;;29.20;4.40;;;;;;;13.19;50.13;98701.59;5097155;28;20250;-70
2024/01/25 05:34:15;;;;;;;12.60;3.53;;;;;;;13.15;50.13;98703.66;5066112;28;20254;-68
2024/01/25 05:36:41;;;;;;;18.57;3.90;;;;;;;13.19;49.97;98710.31;5090040;28;20436;-69
2024/01/25 05:39:07;;;;;;;19.87;3.13;;;;;;;13.18;49.92;98705.19;5089448;28;20264;-69
2024/01/25 05:41:33;;;;;;;22.97;3.70;;;;;;;13.18;50.09;98703.38;5090284;28;20514;-69
2024/01/25 05:43:59;;;;;;;19.07;3.90;;;;;;;13.08;49.87;98701.69;5104177;28;20415;-69
2024/01/25 05:46:24;;;;;;;26.43;3.70;;;;;;;13.10;49.85;98707.66;5089673;28;20470;-69
2024/01/25 05:48:50;;;;;;;21.43;4.50;;;;;;;13.14;50.18;98709.03;5093331;28;20205;-70
2024/01/25 05:51:15;;;;;;;22.10;3.90;;;;;;;13.17;50.18;98714.03;5091559;28;20196;-70
2024/01/25 05:53:41;;;;;;;25.60;3.83;;;;;;;13.15;50.27;98711.56;5095806;28;20817;-70
2024/01/25 05:56:06;;;;;;;13.87;3.43;;;;;;;13.15;50.02;98713.34;5088841;28;20626;-69
2024/01/25 05:58:32;;;;;;;16.07;3.67;;;;;;;13.13;50.31;98717.91;5071731;28;20258;-70
2024/01/25 06:00:57;;;;;;;24.13;4.37;;;;;;;13.09;50.32;98714.69;5089219;28;20188;-68
2024/01/25 06:03:22;;;;;;;23.67;3.80;;;;;;;13.06;50.76;98707.06;5087116;28;20217;-69
2024/01/25 06:05:48;;;;;;;15.07;3.83;;;;;;;13.08;50.65;98709.56;5083580;28;20177;-70
2024/01/25 06:08:13;;;;;;;20.63;4.17;;;;;;;13.04;50.68;98715.09;5084967;28;20290;-71
2024/01/25 06:10:39;;;;;;;15.43;3.43;;;;;;;12.99;51.06;98711.19;5095831;28;20192;-70
2024/01/25 06:13:05;;;;;;;14.87;3.80;;;;;;;12.88;51.56;98709.47;5094356;28;20201;-70
2024/01/25 06:15:31;;;;;;;27.57;5.10;;;;;;;12.85;51.51;98715.00;5088913;28;20192;-70
2024/01/25 06:17:57;;;;;;;18.50;3.97;;;;;;;12.90;52.00;98718.06;5089250;28;20322;-69
2024/01/25 06:20:22;;;;;;;22.30;3.97;;;;;;;12.91;51.49;98714.47;5091465;28;20527;-69
2024/01/25 06:22:48;;;;;;;18.60;3.90;;;;;;;12.86;51.95;98721.91;5092366;28;20239;-71
2024/01/25 06:25:13;;;;;;;14.67;3.53;;;;;;;12.84;51.79;98711.53;5097780;28;20186;-69
2024/01/25 06:27:39;;;;;;;19.83;4.00;;;;;;;12.85;51.82;98709.75;5094134;28;20215;-69
2024/01/25 06:30:05;;;;;;;21.90;4.70;;;;;;;12.78;52.15;98713.84;5083585;28;20663;-69
2024/01/25 06:32:31;;;;;;;21.83;4.27;;;;;;;12.70;52.14;98717.13;5080825;28;20225;-70
2024/01/25 06:34:56;;;;;;;21.93;3.80;;;;;;;12.61;52.81;98710.81;5080069;28;20491;-69
2024/01/25 06:37:22;;;;;;;23.37;3.97;;;;;;;12.48;53.01;98718.06;5065529;28;20234;-70
2024/01/25 06:39:47;;;;;;;13.10;3.50;;;;;;;12.51;53.02;98717.81;5084513;28;20243;-69
2024/01/25 06:42:13;;;;;;;22.30;4.10;;;;;;;12.52;53.17;98715.06;5080192;28;20427;-70
2024/01/25 06:44:39;;;;;;;20.93;4.10;;;;;;;12.50;53.10;98716.16;5089730;28;20238;-69
2024/01/25 06:47:04;;;;;;;22.27;4.27;;;;;;;12.36;53.39;98718.13;5085300;28;20210;-70
2024/01/25 06:49:30;;;;;;;24.50;4.80;;;;;;;12.36;53.14;98728.63;5089640;28;20639;-71
2024/01/25 06:51:55;;;;;;;19.03;4.67;;;;;;;12.32;53.13;98719.34;5027171;28;20191;-68
2024/01/25 06:54:21;;;;;;;18.80;5.03;;;;;;;12.31;53.46;98701.06;5068254;28;20206;-70
2024/01/25 06:56:46;;;;;;;22.77;5.00;;;;;;;12.30;53.37;98710.75;5062995;28;20326;-68
2024/01/25 06:59:12;;;;;;;25.30;4.67;;;;;;;12.29;53.28;98730.13;5069708;28;20199;-70
2024/01/25 07:01:37;;;;;;;21.53;4.10;;;;;;;12.30;53.34;98734.41;5067164;28;20277;-71
2024/01/25 07:04:03;;;;;;;25.10;4.23;;;;;;;12.28;53.44;98742.44;5082952;28;20216;-73
2024/01/25 07:06:29;;;;;;;28.80;5.90;;;;;;;12.26;53.76;98757.50;5090267;28;20242;-72
2024/01/25 07:08:54;;;;;;;34.13;7.20;;;;;;;12.21;53.63;98753.56;5087133;28;20185;-70
2024/01/25 07:11:21;;;;;;;35.33;9.90;;;;;;;12.19;53.55;98760.75;5085573;28;20185;-69
2024/01/25 07:13:46;;;;;;;31.17;11.10;;;;;;;12.21;53.51;98769.34;5083356;28;20616;-70
2024/01/25 07:16:11;;;;;;;27.40;8.20;;;;;;;12.23;53.52;98764.78;5078609;28;20442;-71
2024/01/25 07:18:37;;;;;;;26.10;6.60;;;;;;;12.28;53.52;98762.63;5095307;28;20236;-71
2024/01/25 07:21:02;;;;;;;23.57;5.20;;;;;;;12.28;53.59;98758.22;5080622;28;20686;-71
2024/01/25 07:23:29;;;;;;;32.50;6.20;;;;;;;12.30;53.33;98758.06;5090460;28;20256;-70
2024/01/25 07:25:55;;;;;;;34.53;5.73;;;;;;;12.27;53.21;98764.44;5085505;28;20185;-69
2024/01/25 07:28:20;;;;;;;21.70;5.40;;;;;;;12.32;53.04;98760.56;5097429;28;20437;-69
2024/01/25 07:30:49;;;;;;;17.63;4.50;;;;;;;12.24;53.32;98759.41;5085384;28;20185;-68
2024/01/25 07:33:15;;;;;;;26.60;4.70;;;;;;;12.26;52.92;98761.91;5079450;28;20209;-71
2024/01/25 07:35:45;;;;;;;24.10;4.70;;;;;;;12.21;52.99;98753.56;5086207;28;20424;-69
2024/01/25 07:38:14;;;;;;;20.07;3.30;;;;;;;12.25;52.71;98760.22;5087927;28;20466;-67
2024/01/25 07:40:40;;;;;;;17.30;4.43;;;;;;;12.26;53.21;98764.53;5061691;28;20520;-69
2024/01/25 07:43:05;;;;;;;26.10;4.93;;;;;;;12.29;52.66;98756.41;5073208;28;20503;-70
2024/01/25 07:45:31;;;;;;;36.57;6.13;;;;;;;12.35;52.97;98758.50;5078685;28;20182;-71
2024/01/25 07:47:57;;;;;;;26.20;5.63;;;;;;;12.28;53.10;98766.09;5064618;28;20228;-68
2024/01/25 07:50:22;;;;;;;30.50;7.43;;;;;;;12.37;52.87;98771.56;5079768;28;20511;-69
2024/01/25 07:52:49;;;;;;;32.20;7.70;;;;;;;12.40;52.50;98776.56;5076259;28;20210;-70
2024/01/25 07:55:16;;;;;;;39.53;8.10;;;;;;;12.51;52.67;98780.94;5039203;28;20734;-70
2024/01/25 07:57:41;;;;;;;41.17;7.53;;;;;;;12.52;52.36;98775.56;5069496;28;20522;-70
2024/01/25 08:00:08;;;;;;;30.97;6.70;;;;;;;12.71;52.02;98769.63;5081537;28;20423;-70
2024/01/25 08:02:34;;;;;;;37.33;8.23;;;;;;;12.84;51.19;98766.78;5084951;28;20219;-71
2024/01/25 08:05:00;;;;;;;38.20;7.53;;;;;;;13.00;51.34;98755.78;5076298;28;20466;-70
2024/01/25 08:07:25;;;;;;;49.23;9.23;;;;;;;13.14;50.73;98751.16;5043539;28;20487;-69
2024/01/25 08:09:52;;;;;;;32.47;7.63;;;;;;;13.28;50.55;98748.19;5070259;28;20187;-71
2024/01/25 08:12:18;;;;;;;27.87;6.27;;;;;;;13.42;50.09;98736.47;5088457;28;20182;-70
2024/01/25 08:14:46;;;;;;;29.33;6.00;;;;;;;13.54;49.25;98747.75;5073952;28;20538;-70
2024/01/25 08:17:11;;;;;;;26.00;5.67;;;;;;;13.77;49.07;98743.13;5080431;28;20534;-69
2024/01/25 08:19:37;;;;;;;26.43;5.20;;;;;;;14.09;48.24;98741.22;5074801;28;20200;-70
2024/01/25 08:22:02;;;;;;;23.80;5.83;;;;;;;14.37;48.39;98751.91;5080945;28;20626;-70
2024/01/25 08:24:28;;;;;;;21.83;6.53;;;;;;;14.53;47.76;98741.63;5079758;28;20252;-70
2024/01/25 08:26:53;;;;;;;28.90;5.80;;;;;;;14.77;47.11;98745.66;5081655;28;20201;-70
2024/01/25 08:29:18;;;;;;;22.23;5.70;;;;;;;14.99;46.13;98749.78;5091860;28;20186;-71
2024/01/25 08:31:44;;;;;;;21.83;5.87;;;;;;;15.30;44.85;98743.44;5080164;28;20182;-71
2024/01/25 08:34:09;;;;;;;18.67;4.53;;;;;;;15.61;44.38;98744.00;5086886;28;20291;-70
2024/01/25 08:36:35;;;;;;;25.90;5.27;;;;;;;15.80;44.04;98739.59;5089111;28;20182;-70
2024/01/25 08:39:00;;;;;;;20.60;5.50;;;;;;;16.21;43.74;98747.13;5089269;28;20181;-69
2024/01/25 08:41:27;;;;;;;17.87;5.17;;;;;;;16.47;43.41;98752.47;5075567;28;20194;-69
2024/01/25 08:43:52;;;;;;;26.90;6.17;;;;;;;16.63;42.74;98756.25;5096388;28;20689;-70
2024/01/25 08:46:18;;;;;;;23.13;6.83;;;;;;;17.02;42.02;98764.66;5092074;28;20443;-70
2024/01/25 08:48:43;;;;;;;25.70;5.70;;;;;;;17.14;41.02;98772.34;5087198;28;20213;-71
2024/01/25 08:51:08;;;;;;;24.10;4.40;;;;;;;17.16;40.49;98775.69;5092101;28;20197;-70
2024/01/25 08:53:34;;;;;;;14.83;4.00;;;;;;;17.29;40.07;98778.75;5099428;28;20300;-71
2024/01/25 08:55:59;;;;;;;16.73;4.10;;;;;;;17.40;39.99;98779.47;5093785;28;20663;-70
2024/01/25 08:58:25;;;;;;;13.67;3.83;;;;;;;17.79;39.55;98786.91;5073057;28;20213;-71
2024/01/25 09:00:50;;;;;;;12.27;3.50;;;;;;;18.06;39.18;98782.41;5084810;28;20185;-70
2024/01/25 09:03:16;;;;;;;14.57;3.27;;;;;;;18.35;38.83;98775.81;5083138;28;20189;-70
2024/01/25 09:05:44;;;;;;;16.67;3.63;;;;;;;18.52;37.82;98784.63;5088123;28;20328;-70
2024/01/25 09:08:13;;;;;;;20.13;3.90;;;;;;;18.73;37.43;98776.19;5091975;28;20921;-70
2024/01/25 09:10:41;;;;;;;14.97;3.60;;;;;;;18.88;37.29;98782.47;5095121;28;20418;-69
2024/01/25 09:13:06;;;;;;;18.17;4.30;;;;;;;18.93;37.26;98783.78;5092794;28;20825;-70
2024/01/25 09:15:31;;;;;;;18.80;3.90;;;;;;;19.31;36.41;98781.44;5091270;28;20427;-72
2024/01/25 09:17:57;;;;;;;14.53;3.60;;;;;;;19.55;36.01;98787.66;5086152;28;20694;-69
2024/01/25 09:20:22;;;;;;;15.30;3.50;;;;;;;19.70;35.54;98787.78;5091035;28;20194;-70
2024/01/25 09:22:48;;;;;;;13.23;3.20;;;;;;;19.72;35.72;98799.91;5096378;28;20183;-70
2024/01/25 09:25:13;;;;;;;15.13;3.60;;;;;;;19.85;35.20;98801.19;5090602;28;20280;-70
2024/01/25 09:27:39;;;;;;;17.27;3.97;;;;;;;19.70;35.14;98807.22;5082468;28;20215;-70
2024/01/25 09:30:08;;;;;;;14.80;3.77;;;;;;;19.75;34.75;98804.91;5082488;28;20182;-73
2024/01/25 09:32:33;;;;;;;14.73;3.80;;;;;;;19.37;35.19;98802.03;5086036;28;20269;-71
2024/01/25 09:34:59;;;;;;;19.17;3.33;;;;;;;19.53;35.58;98805.66;5091793;28;20517;-71
2024/01/25 09:37:25;;;;;;;20.30;3.90;;;;;;;19.26;35.39;98802.38;5083040;28;20952;-71
2024/01/25 09:39:53;;;;;;;12.60;2.70;;;;;;;18.91;36.21;98812.34;5104154;28;20185;-70
2024/01/25 09:42:19;;;;;;;12.67;3.30;;;;;;;18.46;36.88;98810.00;5097289;28;20200;-71
2024/01/25 09:44:45;;;;;;;18.40;3.57;;;;;;;18.39;36.67;98816.97;5092853;28;20435;-69
2024/01/25 09:47:11;;;;;;;13.90;3.70;;;;;;;18.16;37.04;98812.28;5095794;28;20232;-70
2024/01/25 09:49:36;;;;;;;15.93;3.70;;;;;;;18.00;37.64;98814.91;5097895;28;20266;-70
2024/01/25 09:52:05;;;;;;;17.80;3.63;;;;;;;18.05;37.51;98817.88;5082572;28;20480;-70
2024/01/25 09:54:35;;;;;;;19.67;3.67;;;;;;;17.98;36.66;98814.22;5090379;28;20217;-70
2024/01/25 09:57:03;;;;;;;12.77;3.50;;;;;;;18.07;37.06;98814.09;5095386;28;20450;-71
2024/01/25 09:59:29;;;;;;;16.33;3.10;;;;;;;18.06;36.63;98838.09;5073176;28;20434;-70
2024/01/25 10:01:54;;;;;;;13.73;3.00;;;;;;;17.85;37.40;98833.19;5083983;28;20439;-71
2024/01/25 10:04:23;;;;;;;18.50;3.57;;;;;;;17.62;37.92;98831.09;5089906;28;20205;-72
2024/01/25 10:06:49;;;;;;;16.60;3.80;;;;;;;17.48;38.30;98829.88;5086301;28;20216;-70
2024/01/25 10:09:14;;;;;;;16.73;3.50;;;;;;;17.39;38.06;98834.28;5084576;28;20516;-70
2024/01/25 10:11:39;;;;;;;15.57;3.57;;;;;;;17.28;38.68;98831.91;5099413;28;20282;-71
2024/01/25 10:14:06;;;;;;;19.07;4.10;;;;;;;17.25;38.92;98833.06;5097167;28;20213;-70
2024/01/25 10:16:31;;;;;;;12.77;3.60;;;;;;;17.17;38.88;98836.47;5089042;28;20189;-70
2024/01/25 10:18:57;;;;;;;17.10;3.40;;;;;;;17.06;39.93;98834.09;5090376;28;20439;-70
2024/01/25 10:21:23;;;;;;;20.77;3.70;;;;;;;17.02;39.89;98828.25;5087576;28;20236;-70
2024/01/25 10:23:50;;;;;;;18.23;3.63;;;;;;;17.10;39.39;98813.41;5090542;28;20510;-69
2024/01/25 10:26:15;;;;;;;13.50;3.47;;;;;;;17.10;39.44;98814.22;5089495;28;20189;-69
2024/01/25 10:28:41;;;;;;;19.60;4.10;;;;;;;17.13;39.21;98813.09;5089492;28;20528;-70
2024/01/25 10:31:07;;;;;;;21.77;3.23;;;;;;;17.34;39.20;98810.91;5090738;28;20851;-71
2024/01/25 10:33:33;;;;;;;15.80;3.00;;;;;;;17.56;38.76;98807.88;5082500;28;20208;-70
2024/01/25 10:36:03;;;;;;;20.80;3.30;;;;;;;17.60;38.31;98804.75;5089417;28;20428;-70
2024/01/25 10:38:37;;;;;;;14.53;3.80;;;;;;;18.21;38.18;98803.84;5080703;28;20538;-70
2024/01/25 10:41:04;;;;;;;13.70;3.00;;;;;;;18.97;37.11;98803.75;5084422;28;20462;-70
2024/01/25 10:43:30;;;;;;;14.70;3.17;;;;;;;19.34;35.35;98797.03;5071947;28;20432;-71
2024/01/25 10:45:58;;;;;;;13.50;3.17;;;;;;;19.71;34.59;98803.56;5089434;28;20431;-72
2024/01/25 10:48:26;;;;;;;10.63;3.10;;;;;;;19.98;34.26;98798.84;5089668;28;20453;-70
2024/01/25 10:50:53;;;;;;;16.93;3.33;;;;;;;19.76;34.21;98798.56;5090159;28;20516;-69
2024/01/25 10:53:19;;;;;;;12.47;3.10;;;;;;;20.00;33.61;98788.84;5083523;28;20462;-70
2024/01/25 10:55:45;;;;;;;17.27;3.77;;;;;;;19.91;33.92;98781.91;5090890;28;20530;-72
2024/01/25 10:58:13;;;;;;;12.07;2.77;;;;;;;20.22;33.05;98781.91;5076989;28;20458;-72
2024/01/25 11:00:38;;;;;;;9.93;2.90;;;;;;;20.78;33.22;98782.69;5091781;28;20553;-71
2024/01/25 11:03:05;;;;;;;13.67;3.37;;;;;;;21.28;32.00;98773.22;5096267;28;20420;-69
2024/01/25 11:05:31;;;;;;;13.93;2.97;;;;;;;21.48;31.19;98769.97;5070645;28;20277;-72
2024/01/25 11:07:58;;;;;;;14.27;2.83;;;;;;;21.73;31.02;98764.38;5084694;28;20605;-71
2024/01/25 11:10:27;;;;;;;12.20;3.20;;;;;;;21.93;30.03;98761.94;5080883;28;20549;-72
2024/01/25 11:13:00;;;;;;;13.43;3.20;;;;;;;21.90;30.19;98760.47;5071350;28;20471;-70
2024/01/25 11:15:36;;;;;;;17.50;2.97;;;;;;;21.81;30.14;98758.91;5070749;28;20795;-72
2024/01/25 11:18:03;;;;;;;10.43;2.90;;;;;;;22.13;30.13;98754.16;5089149;28;20455;-70